Time;durP1;ratioP1;P1;durP2;ratioP2;P2;SDS_P1;SDS_P2;PMS_P1;PMS_P2;Temp;Humidity;BMP_temperature;BMP_pressure;BME280_temperature;BME280_humidity;BME280_pressure;Samples;Min_cycle;Max_cycle;Signal;HPM_P1;HPM_P2
2022/04/15 00:00:48;;;;;;;0.00;0.00;;;;;;;14.25;64.16;101510.63;7362309;19;20006;-66
2022/04/15 00:03:13;;;;;;;0.00;0.00;;;;;;;14.26;63.74;101509.72;7359840;19;20027;-66
2022/04/15 00:05:42;;;;;;;0.00;0.00;;;;;;;14.23;63.95;101505.41;7356898;19;20014;-65
2022/04/15 00:08:09;;;;;;;0.03;0.03;;;;;;;14.25;63.72;101508.88;7361456;19;20547;-65
2022/04/15 00:10:35;;;;;;;0.05;0.05;;;;;;;14.22;64.07;101502.81;7362254;19;20025;-67
2022/04/15 00:13:03;;;;;;;0.00;0.00;;;;;;;14.22;64.07;101508.06;7364375;19;20497;-64
2022/04/15 00:15:29;;;;;;;0.00;0.00;;;;;;;14.23;63.54;101509.78;7365276;19;20874;-66
2022/04/15 00:17:55;;;;;;;0.00;0.00;;;;;;;14.23;63.63;101512.41;7358850;19;20014;-66
2022/04/15 00:20:21;;;;;;;0.10;0.10;;;;;;;14.17;64.04;101499.44;7364774;19;20365;-67
2022/04/15 00:22:47;;;;;;;0.00;0.00;;;;;;;14.19;64.00;101510.75;7356535;19;20017;-64
2022/04/15 00:25:12;;;;;;;0.10;0.10;;;;;;;14.16;64.08;101513.50;7363011;19;20101;-66
2022/04/15 00:27:39;;;;;;;0.00;0.00;;;;;;;14.13;63.96;101509.16;7360728;19;20695;-66
2022/04/15 00:30:08;;;;;;;0.05;0.05;;;;;;;14.05;63.96;101499.75;7364224;19;21190;-66
2022/04/15 00:32:33;;;;;;;0.08;0.08;;;;;;;14.00;63.76;101497.25;7362921;19;20462;-66
2022/04/15 00:34:59;;;;;;;0.00;0.00;;;;;;;13.97;63.77;101513.06;7358442;19;20027;-65
2022/04/15 00:37:24;;;;;;;0.00;0.00;;;;;;;13.91;64.27;101518.47;7358916;19;20018;-65
2022/04/15 00:39:51;;;;;;;0.10;0.10;;;;;;;13.81;64.07;101516.94;7361845;19;20086;-65
2022/04/15 00:42:16;;;;;;;0.00;0.00;;;;;;;13.79;64.50;101513.47;7358975;19;20021;-65
2022/04/15 00:44:42;;;;;;;0.00;0.00;;;;;;;13.68;64.70;101511.97;7359064;19;20014;-65
2022/04/15 00:47:17;;;;;;;0.00;0.00;;;;;;;13.64;64.80;101505.09;7360450;19;20066;-65
2022/04/15 00:49:42;;;;;;;0.00;0.00;;;;;;;13.57;64.66;101506.09;7357740;19;20082;-65
2022/04/15 00:52:12;;;;;;;0.00;0.00;;;;;;;13.53;64.75;101507.06;7360978;19;20105;-66
2022/04/15 00:54:39;;;;;;;0.00;0.00;;;;;;;13.47;64.93;101507.19;7360556;19;20034;-66
2022/04/15 00:57:07;;;;;;;0.10;0.10;;;;;;;13.30;65.04;101483.09;7359737;19;21134;-65
2022/04/15 00:59:34;;;;;;;0.00;0.00;;;;;;;13.23;65.43;101478.00;7359243;19;20367;-66
2022/04/15 01:02:01;;;;;;;0.10;0.10;;;;;;;13.29;65.27;101489.25;7355111;19;20010;-65
2022/04/15 01:04:31;;;;;;;0.00;0.00;;;;;;;13.33;65.51;101507.50;7363641;19;20128;-66
2022/04/15 01:07:02;;;;;;;0.00;0.00;;;;;;;13.28;65.25;101505.84;7357135;19;20481;-66
2022/04/15 01:09:32;;;;;;;0.00;0.00;;;;;;;13.23;65.84;101498.13;7347020;19;20014;-66
2022/04/15 01:11:58;;;;;;;0.00;0.00;;;;;;;13.20;66.09;101504.22;7363128;19;20006;-62
2022/04/15 01:14:25;;;;;;;0.00;0.00;;;;;;;13.15;65.89;101511.34;7361642;19;20013;-66
2022/04/15 01:16:51;;;;;;;0.00;0.00;;;;;;;13.12;66.16;101514.00;7360198;19;20085;-66
2022/04/15 01:19:16;;;;;;;0.10;0.10;;;;;;;13.08;66.43;101507.13;7360133;19;20044;-66
2022/04/15 01:21:44;;;;;;;0.00;0.00;;;;;;;13.05;66.64;101509.78;7356837;19;20633;-64
2022/04/15 01:24:09;;;;;;;0.00;0.00;;;;;;;13.02;66.42;101512.47;7358427;19;20482;-66
2022/04/15 01:26:37;;;;;;;0.10;0.10;;;;;;;12.99;66.84;101504.69;7361634;19;20010;-65
2022/04/15 01:29:02;;;;;;;0.00;0.00;;;;;;;12.95;66.15;101508.25;7351823;19;20006;-65
2022/04/15 01:31:31;;;;;;;0.00;0.00;;;;;;;12.94;66.96;101503.91;7356636;19;20011;-64
2022/04/15 01:33:58;;;;;;;0.10;0.10;;;;;;;12.92;67.72;101503.06;7362125;19;20306;-66
2022/04/15 01:36:23;;;;;;;0.10;0.10;;;;;;;12.88;67.22;101490.91;7349047;19;20014;-64
2022/04/15 01:38:48;;;;;;;0.00;0.00;;;;;;;12.85;67.20;101502.31;7353480;19;20014;-66
2022/04/15 01:41:14;;;;;;;0.00;0.00;;;;;;;12.87;67.70;101505.75;7359055;19;20023;-66
2022/04/15 01:43:39;;;;;;;0.00;0.00;;;;;;;12.78;68.10;101494.63;7359017;19;20014;-66
2022/04/15 01:46:05;;;;;;;0.00;0.00;;;;;;;12.85;68.03;101499.69;7351347;19;20065;-66
2022/04/15 01:48:30;;;;;;;0.00;0.00;;;;;;;12.87;67.94;101512.75;7356665;19;20028;-66
2022/04/15 01:50:55;;;;;;;0.00;0.00;;;;;;;12.87;68.07;101510.13;7359470;19;20508;-66
2022/04/15 01:53:22;;;;;;;0.00;0.00;;;;;;;12.87;68.81;101504.91;7357514;19;20018;-66
2022/04/15 01:55:48;;;;;;;0.00;0.00;;;;;;;12.87;68.50;101512.75;7360742;19;20074;-65
2022/04/15 01:58:13;;;;;;;0.00;0.00;;;;;;;12.87;68.58;101504.91;7337637;19;20097;-65
2022/04/15 02:00:39;;;;;;;0.10;0.10;;;;;;;12.89;68.05;101509.22;7356770;19;20002;-67
2022/04/15 02:03:04;;;;;;;0.00;0.00;;;;;;;12.74;69.01;101488.56;7343345;19;20018;-66
2022/04/15 02:05:30;;;;;;;0.10;0.10;;;;;;;12.91;68.88;101506.56;7354021;19;20018;-65
2022/04/15 02:07:55;;;;;;;0.10;0.10;;;;;;;12.92;68.61;101509.16;7355546;19;20812;-66
2022/04/15 02:10:21;;;;;;;0.03;0.03;;;;;;;12.92;68.72;101508.28;7351624;19;20018;-66
2022/04/15 02:12:47;;;;;;;0.10;0.10;;;;;;;12.96;68.32;101509.97;7354152;19;20011;-66
2022/04/15 02:15:12;;;;;;;0.00;0.00;;;;;;;12.85;67.68;101491.84;7355884;19;20010;-66
2022/04/15 02:17:37;;;;;;;0.00;0.00;;;;;;;12.98;68.59;101501.19;7351942;19;20411;-67
2022/04/15 02:20:04;;;;;;;0.00;0.00;;;;;;;12.93;69.10;101494.31;7353682;19;20003;-65
2022/04/15 02:22:29;;;;;;;0.00;0.00;;;;;;;13.01;69.02;101508.13;7348848;19;20006;-65
2022/04/15 02:24:55;;;;;;;0.00;0.00;;;;;;;13.04;69.02;101512.47;7356739;19;20010;-66
2022/04/15 02:27:20;;;;;;;0.00;0.00;;;;;;;13.03;69.00;101516.84;7352737;19;20335;-66
2022/04/15 02:29:46;;;;;;;0.00;0.00;;;;;;;12.95;68.62;101503.00;7339248;19;20047;-65
2022/04/15 02:32:11;;;;;;;0.00;0.00;;;;;;;13.06;68.54;101516.75;7354072;19;20018;-66
2022/04/15 02:34:37;;;;;;;0.10;0.10;;;;;;;13.06;68.68;101511.50;7356838;19;21231;-66
2022/04/15 02:37:02;;;;;;;0.00;0.00;;;;;;;13.10;68.47;101523.69;7348064;19;20906;-66
2022/04/15 02:39:28;;;;;;;0.10;0.10;;;;;;;13.11;68.63;101514.91;7356966;19;20745;-66
2022/04/15 02:41:55;;;;;;;0.00;0.00;;;;;;;13.03;68.32;101490.63;7340545;19;20007;-66
2022/04/15 02:44:21;;;;;;;0.00;0.00;;;;;;;13.02;68.73;101494.09;7354669;19;20031;-65
2022/04/15 02:46:46;;;;;;;0.10;0.10;;;;;;;13.12;68.06;101508.75;7349314;19;20010;-65
2022/04/15 02:49:12;;;;;;;0.00;0.00;;;;;;;13.14;68.61;101504.38;7352474;19;20011;-65
2022/04/15 02:51:37;;;;;;;0.00;0.00;;;;;;;13.13;68.60;101497.41;7347939;19;20014;-66
2022/04/15 02:54:03;;;;;;;0.00;0.00;;;;;;;13.16;68.11;101494.69;7351960;19;20046;-65
2022/04/15 02:56:28;;;;;;;0.00;0.00;;;;;;;13.14;67.34;101495.63;7352769;19;20508;-65
2022/04/15 02:58:54;;;;;;;0.00;0.00;;;;;;;13.20;67.66;101503.38;7349597;19;20014;-65
2022/04/15 03:01:19;;;;;;;0.00;0.00;;;;;;;13.20;68.46;101509.47;7356108;19;21030;-66
2022/04/15 03:03:45;;;;;;;0.00;0.00;;;;;;;13.20;68.53;101504.22;7335249;19;20011;-66
2022/04/15 03:06:10;;;;;;;0.00;0.00;;;;;;;13.20;68.77;101498.13;7343015;19;20006;-66
2022/04/15 03:08:35;;;;;;;0.00;0.00;;;;;;;13.21;68.50;101492.88;7358282;19;20006;-65
2022/04/15 03:11:01;;;;;;;0.10;0.10;;;;;;;13.16;68.62;101497.31;7354317;19;20031;-66
2022/04/15 03:13:27;;;;;;;0.08;0.08;;;;;;;13.23;68.70;101493.72;7346571;19;20049;-65
2022/04/15 03:15:53;;;;;;;0.00;0.00;;;;;;;13.13;68.76;101465.94;7352182;19;20030;-65
2022/04/15 03:18:18;;;;;;;0.00;0.00;;;;;;;13.24;69.04;101484.09;7338146;19;19999;-66
2022/04/15 03:20:44;;;;;;;0.00;0.00;;;;;;;13.22;68.87;101486.72;7353032;19;20079;-65
2022/04/15 03:23:09;;;;;;;0.00;0.00;;;;;;;13.23;68.08;101483.22;7358268;19;20019;-66
2022/04/15 03:25:34;;;;;;;0.00;0.00;;;;;;;13.19;68.46;101492.03;7357995;19;20030;-63
2022/04/15 03:28:00;;;;;;;0.00;0.00;;;;;;;13.15;69.03;101490.34;7356228;19;20728;-66
2022/04/15 03:30:27;;;;;;;0.10;0.10;;;;;;;12.89;68.64;101456.81;7354036;19;20037;-64
2022/04/15 03:32:53;;;;;;;0.10;0.10;;;;;;;13.06;68.54;101493.16;7353682;19;20349;-67
2022/04/15 03:35:20;;;;;;;0.00;0.00;;;;;;;13.05;69.01;101501.94;7350496;19;20010;-65
2022/04/15 03:37:50;;;;;;;0.00;0.00;;;;;;;13.04;68.35;101502.81;7357653;19;20484;-66
2022/04/15 03:40:15;;;;;;;0.10;0.10;;;;;;;12.98;69.02;101497.72;7350064;19;20014;-65
2022/04/15 03:42:49;;;;;;;0.00;0.00;;;;;;;12.97;69.09;101498.56;7356728;19;20890;-66
2022/04/15 03:45:18;;;;;;;0.00;0.00;;;;;;;12.81;68.64;101479.66;7357128;19;20011;-67
2022/04/15 03:47:45;;;;;;;0.00;0.00;;;;;;;12.88;68.92;101493.53;7348823;19;20419;-66
2022/04/15 03:50:11;;;;;;;0.00;0.00;;;;;;;12.84;69.08;101487.50;7358745;19;20018;-66
2022/04/15 03:52:38;;;;;;;0.00;0.00;;;;;;;12.80;69.44;101487.56;7348534;19;20042;-66
2022/04/15 03:55:05;;;;;;;0.00;0.00;;;;;;;12.75;68.85;101492.91;7358002;19;20011;-66
2022/04/15 03:57:30;;;;;;;0.05;0.05;;;;;;;12.69;69.58;101496.50;7357598;19;20719;-66
2022/04/15 03:59:56;;;;;;;0.00;0.00;;;;;;;12.58;69.09;101487.97;7352878;19;20006;-65
2022/04/15 04:02:21;;;;;;;0.00;0.00;;;;;;;12.61;69.94;101487.91;7355613;19;20026;-65
2022/04/15 04:04:46;;;;;;;0.05;0.05;;;;;;;12.57;69.95;101481.03;7361861;19;20842;-64
2022/04/15 04:07:12;;;;;;;0.00;0.00;;;;;;;12.55;69.91;101482.78;7365017;19;20765;-65
2022/04/15 04:09:37;;;;;;;0.10;0.10;;;;;;;12.52;69.81;101477.63;7364171;19;20078;-64
2022/04/15 04:12:03;;;;;;;0.00;0.00;;;;;;;12.39;69.81;101465.63;7361629;19;20459;-65
2022/04/15 04:14:28;;;;;;;0.00;0.00;;;;;;;12.47;70.34;101487.31;7363628;19;20035;-66
2022/04/15 04:16:54;;;;;;;0.00;0.00;;;;;;;12.46;70.08;101490.81;7357871;19;20014;-64
2022/04/15 04:19:19;;;;;;;0.00;0.00;;;;;;;12.45;69.62;101492.56;7358656;19;20038;-65
2022/04/15 04:21:45;;;;;;;0.00;0.00;;;;;;;12.46;69.97;101490.81;7362995;19;20049;-64
2022/04/15 04:24:10;;;;;;;0.10;0.10;;;;;;;12.43;70.06;101489.13;7361810;19;20034;-65
2022/04/15 04:26:35;;;;;;;0.00;0.00;;;;;;;12.45;70.93;101484.72;7364561;19;20003;-63
2022/04/15 04:29:01;;;;;;;0.00;0.00;;;;;;;12.45;70.55;101486.47;7353585;19;20015;-64
2022/04/15 04:31:26;;;;;;;0.00;0.00;;;;;;;12.45;70.78;101491.72;7355727;19;21316;-65
2022/04/15 04:33:52;;;;;;;0.10;0.10;;;;;;;12.45;70.80;101492.56;7362951;19;20096;-66
2022/04/15 04:36:17;;;;;;;0.00;0.00;;;;;;;12.46;70.44;101488.19;7359659;19;20014;-64
2022/04/15 04:38:42;;;;;;;0.00;0.00;;;;;;;12.44;70.48;101496.09;7359637;19;20030;-66
2022/04/15 04:41:08;;;;;;;0.00;0.00;;;;;;;12.46;70.79;101503.91;7360674;19;20003;-65
2022/04/15 04:43:33;;;;;;;0.00;0.00;;;;;;;12.43;71.17;101509.22;7358110;19;20014;-65
2022/04/15 04:45:59;;;;;;;0.00;0.00;;;;;;;12.43;70.80;101511.84;7359562;19;20014;-65
2022/04/15 04:48:24;;;;;;;0.00;0.00;;;;;;;12.35;71.18;101500.63;7352310;19;20007;-64
2022/04/15 04:50:50;;;;;;;0.00;0.00;;;;;;;12.40;71.00;101515.34;7362649;19;20026;-66
2022/04/15 04:53:16;;;;;;;0.00;0.00;;;;;;;12.42;70.90;101515.34;7362534;19;20011;-65
2022/04/15 04:55:42;;;;;;;0.00;0.00;;;;;;;12.41;71.23;101505.75;7362575;19;20019;-65
2022/04/15 04:58:07;;;;;;;0.00;0.00;;;;;;;12.43;71.43;101504.84;7345941;19;20025;-64
2022/04/15 05:00:32;;;;;;;0.00;0.00;;;;;;;12.45;70.87;101507.44;7363439;19;20034;-65
2022/04/15 05:02:59;;;;;;;0.00;0.00;;;;;;;12.47;71.36;101513.53;7356885;19;20474;-65
2022/04/15 05:05:25;;;;;;;0.00;0.00;;;;;;;12.48;71.07;101523.09;7360317;19;20768;-64
2022/04/15 05:07:50;;;;;;;0.03;0.03;;;;;;;12.50;71.32;101516.06;7360774;19;20002;-65
2022/04/15 05:10:16;;;;;;;0.00;0.00;;;;;;;12.53;71.42;101510.78;7363055;19;20086;-65
2022/04/15 05:12:41;;;;;;;0.05;0.05;;;;;;;12.57;71.15;101519.44;7355502;19;20022;-64
2022/04/15 05:15:07;;;;;;;0.10;0.10;;;;;;;12.59;71.39;101515.91;7357750;19;20488;-65
2022/04/15 05:17:32;;;;;;;0.00;0.00;;;;;;;12.62;71.13;101531.59;7361610;19;20026;-65
2022/04/15 05:19:58;;;;;;;0.00;0.00;;;;;;;12.64;70.82;101529.78;7358472;19;20010;-64
2022/04/15 05:22:23;;;;;;;0.00;0.00;;;;;;;12.66;71.04;101530.63;7362971;19;20039;-65
2022/04/15 05:24:49;;;;;;;0.05;0.05;;;;;;;12.68;70.76;101526.22;7359217;19;20022;-65
2022/04/15 05:27:15;;;;;;;0.10;0.10;;;;;;;12.61;71.23;101508.00;7362071;19;20054;-63
2022/04/15 05:29:40;;;;;;;0.00;0.00;;;;;;;12.72;71.06;101521.78;7354599;19;20010;-66
2022/04/15 05:32:06;;;;;;;0.00;0.00;;;;;;;12.68;71.41;101504.41;7361221;19;20881;-65
2022/04/15 05:34:31;;;;;;;0.00;0.00;;;;;;;12.76;70.32;101517.34;7363441;19;20010;-64
2022/04/15 05:36:56;;;;;;;0.00;0.00;;;;;;;12.78;70.93;101523.44;7361906;19;20041;-64
2022/04/15 05:39:22;;;;;;;0.00;0.00;;;;;;;12.64;70.71;101514.06;7357883;19;20509;-66
2022/04/15 05:41:47;;;;;;;0.00;0.00;;;;;;;12.80;70.47;101545.22;7354597;19;20030;-66
2022/04/15 05:44:14;;;;;;;0.00;0.00;;;;;;;12.79;70.76;101548.75;7358651;19;21623;-64
2022/04/15 05:46:42;;;;;;;0.00;0.00;;;;;;;12.79;71.32;101548.75;7361263;19;20070;-66
2022/04/15 05:49:13;;;;;;;0.10;0.10;;;;;;;12.81;71.43;101546.97;7358555;19;20011;-65
2022/04/15 05:51:42;;;;;;;0.10;0.10;;;;;;;12.76;71.38;101539.19;7362722;19;20006;-66
2022/04/15 05:54:08;;;;;;;0.00;0.00;;;;;;;12.81;70.85;101544.34;7353831;19;20003;-66
2022/04/15 05:56:33;;;;;;;0.10;0.10;;;;;;;12.84;71.51;101550.41;7359582;19;20013;-65
2022/04/15 05:58:59;;;;;;;0.00;0.00;;;;;;;12.86;70.74;101552.97;7363452;19;20010;-65
2022/04/15 06:01:24;;;;;;;0.08;0.08;;;;;;;12.87;70.87;101552.94;7352888;19;20679;-66
2022/04/15 06:03:49;;;;;;;0.10;0.10;;;;;;;12.83;71.55;101546.06;7356940;19;20014;-65
2022/04/15 06:06:15;;;;;;;0.00;0.00;;;;;;;12.90;70.50;101555.53;7360501;19;20024;-65
2022/04/15 06:08:40;;;;;;;0.00;0.00;;;;;;;12.92;70.76;101550.25;7358504;19;20014;-66
2022/04/15 06:11:06;;;;;;;0.00;0.00;;;;;;;12.93;71.27;101555.47;7358336;19;20379;-65
2022/04/15 06:13:31;;;;;;;0.05;0.05;;;;;;;12.93;71.50;101567.72;7354623;19;20010;-66
2022/04/15 06:15:58;;;;;;;0.05;0.05;;;;;;;12.86;71.94;101545.13;7360402;19;20019;-65
2022/04/15 06:18:25;;;;;;;0.05;0.05;;;;;;;13.01;71.70;101564.94;7360767;19;20066;-65
2022/04/15 06:20:51;;;;;;;0.00;0.00;;;;;;;13.02;71.68;101557.03;7352689;19;20726;-66
2022/04/15 06:23:17;;;;;;;0.10;0.10;;;;;;;13.07;71.93;101562.19;7360142;19;20009;-65
2022/04/15 06:25:44;;;;;;;0.00;0.00;;;;;;;13.12;71.41;101563.84;7358482;19;20021;-62
2022/04/15 06:28:10;;;;;;;0.00;0.00;;;;;;;13.06;71.77;101548.22;7358724;19;20010;-65
2022/04/15 06:30:35;;;;;;;0.00;0.00;;;;;;;13.19;71.73;101575.94;7355639;19;20003;-65
2022/04/15 06:33:01;;;;;;;0.00;0.00;;;;;;;13.13;71.89;101549.00;7357121;19;20085;-65
2022/04/15 06:35:27;;;;;;;0.00;0.00;;;;;;;13.27;71.60;101557.47;7358884;19;20021;-66
2022/04/15 06:37:52;;;;;;;0.00;0.00;;;;;;;13.33;71.70;101552.09;7347722;19;20352;-65
2022/04/15 06:40:18;;;;;;;0.00;0.00;;;;;;;13.37;71.52;101548.50;7353389;19;20052;-64
2022/04/15 06:42:44;;;;;;;0.00;0.00;;;;;;;13.40;71.30;101555.47;7349980;19;20049;-66
2022/04/15 06:45:11;;;;;;;0.00;0.00;;;;;;;13.39;71.10;101554.59;7355487;19;20474;-65
2022/04/15 06:47:36;;;;;;;0.00;0.00;;;;;;;13.44;71.49;101559.75;7357886;19;20037;-64
2022/04/15 06:50:02;;;;;;;0.00;0.00;;;;;;;13.45;71.40;101559.72;7357467;19;20123;-64
2022/04/15 06:52:27;;;;;;;0.10;0.10;;;;;;;13.48;71.53;101562.28;7350653;19;20038;-65
2022/04/15 06:54:53;;;;;;;0.00;0.00;;;;;;;13.46;71.71;101568.44;7354496;19;20103;-64
2022/04/15 06:57:18;;;;;;;0.10;0.10;;;;;;;13.57;71.25;101576.09;7342211;19;20035;-65
2022/04/15 06:59:44;;;;;;;0.00;0.00;;;;;;;13.51;71.26;101550.84;7354905;19;20027;-66
2022/04/15 07:02:09;;;;;;;0.00;0.00;;;;;;;13.65;70.97;101561.06;7342711;19;20011;-65
2022/04/15 07:04:34;;;;;;;0.05;0.05;;;;;;;13.67;71.12;101565.34;7356268;19;20026;-65
2022/04/15 07:07:00;;;;;;;0.00;0.00;;;;;;;13.71;71.32;101568.78;7351595;19;20010;-65
2022/04/15 07:09:26;;;;;;;0.00;0.00;;;;;;;13.74;71.41;101569.59;7353243;19;20006;-65
2022/04/15 07:11:52;;;;;;;0.00;0.00;;;;;;;13.76;70.93;101570.41;7352801;19;20018;-65
2022/04/15 07:14:17;;;;;;;0.00;0.00;;;;;;;13.81;71.00;101583.44;7345074;19;20498;-66
2022/04/15 07:16:43;;;;;;;0.10;0.10;;;;;;;13.71;70.95;101558.28;7348532;19;20794;-66
2022/04/15 07:19:09;;;;;;;0.00;0.00;;;;;;;13.83;70.82;101570.28;7357235;19;20007;-66
2022/04/15 07:21:35;;;;;;;0.00;0.00;;;;;;;13.97;70.91;101573.47;7348276;19;20014;-66
2022/04/15 07:24:01;;;;;;;0.03;0.03;;;;;;;13.89;70.93;101549.13;7347659;19;20007;-65
2022/04/15 07:26:26;;;;;;;0.00;0.00;;;;;;;14.11;70.71;101586.28;7348380;19;20016;-65
2022/04/15 07:28:51;;;;;;;0.00;0.00;;;;;;;14.14;70.68;101584.47;7352840;19;20018;-65
2022/04/15 07:31:17;;;;;;;0.00;0.00;;;;;;;14.20;70.41;101579.06;7352937;19;20014;-65
2022/04/15 07:33:42;;;;;;;0.10;0.10;;;;;;;14.24;70.38;101574.56;7347311;19;20015;-66
2022/04/15 07:36:42;;;;;;;0.00;0.00;;;;;;;14.39;70.43;101584.69;7354830;19;20018;-66
2022/04/15 07:38:53;;;;;;;0.10;0.10;;;;;;;14.46;69.92;101577.56;7358813;19;20027;-64
2022/04/15 07:41:19;;;;;;;0.05;0.05;;;;;;;14.55;69.88;101585.25;7351015;19;20474;-66
2022/04/15 07:43:45;;;;;;;0.00;0.00;;;;;;;14.58;69.13;101579.91;7359598;19;20014;-66
2022/04/15 07:46:10;;;;;;;0.10;0.10;;;;;;;14.62;69.60;101580.69;7350071;19;20002;-66
2022/04/15 07:48:36;;;;;;;0.00;0.00;;;;;;;14.66;69.10;101567.44;7354486;19;20021;-64
2022/04/15 07:51:03;;;;;;;0.10;0.10;;;;;;;14.70;69.24;101584.88;7360616;19;20006;-66
2022/04/15 07:53:28;;;;;;;0.03;0.03;;;;;;;14.76;69.27;101574.19;7358366;19;20025;-64
2022/04/15 07:55:54;;;;;;;0.00;0.00;;;;;;;14.85;69.02;101578.34;7360123;19;20569;-64
2022/04/15 07:58:19;;;;;;;0.10;0.10;;;;;;;14.92;69.20;101584.28;7355664;19;20018;-66
2022/04/15 08:00:44;;;;;;;0.00;0.00;;;;;;;14.97;69.00;101577.16;7356858;19;20020;-65
2022/04/15 08:03:10;;;;;;;0.00;0.00;;;;;;;15.04;68.21;101594.47;7358399;19;20010;-65
2022/04/15 08:05:35;;;;;;;0.00;0.00;;;;;;;15.09;68.30;101592.59;7352167;19;20014;-65
2022/04/15 08:08:01;;;;;;;0.00;0.00;;;;;;;15.11;68.35;101585.53;7344561;19;20085;-65
2022/04/15 08:10:26;;;;;;;0.00;0.00;;;;;;;15.15;68.00;101591.56;7362628;19;20078;-65
2022/04/15 08:12:52;;;;;;;0.10;0.10;;;;;;;15.16;67.84;101594.16;7342407;19;20014;-65
2022/04/15 08:15:18;;;;;;;0.00;0.00;;;;;;;15.17;68.01;101595.88;7343285;19;20030;-66
2022/04/15 08:17:43;;;;;;;0.10;0.10;;;;;;;15.08;67.78;101580.34;7356849;19;20010;-66
2022/04/15 08:20:09;;;;;;;0.10;0.10;;;;;;;15.17;68.25;101600.28;7351342;19;20018;-66
2022/04/15 08:22:35;;;;;;;0.00;0.00;;;;;;;15.17;67.99;101600.28;7362303;19;20006;-65
2022/04/15 08:25:02;;;;;;;0.08;0.08;;;;;;;15.07;67.69;101573.34;7350529;19;20050;-64
2022/04/15 08:27:27;;;;;;;0.03;0.03;;;;;;;15.07;67.84;101573.34;7356927;19;20027;-65
2022/04/15 08:29:53;;;;;;;0.00;0.00;;;;;;;15.19;67.73;101601.94;7339192;19;22012;-64
2022/04/15 08:32:20;;;;;;;0.00;0.00;;;;;;;15.23;67.46;101611.50;7358289;19;20608;-64
2022/04/15 08:34:45;;;;;;;0.00;0.00;;;;;;;15.22;68.05;101603.66;7353190;19;20090;-65
2022/04/15 08:37:13;;;;;;;0.00;0.00;;;;;;;15.24;67.68;101612.34;7356678;19;20094;-65
2022/04/15 08:39:39;;;;;;;0.00;0.00;;;;;;;15.27;67.65;101613.13;7358074;19;20017;-66
2022/04/15 08:42:07;;;;;;;0.00;0.00;;;;;;;15.35;67.43;101617.31;7358483;19;20015;-66
2022/04/15 08:44:33;;;;;;;0.00;0.00;;;;;;;15.37;67.33;101619.00;7353399;19;20026;-64
2022/04/15 08:47:01;;;;;;;0.00;0.00;;;;;;;15.44;67.19;101610.03;7347470;19;20026;-66
2022/04/15 08:49:29;;;;;;;0.10;0.10;;;;;;;15.48;67.09;101611.66;7358128;19;20021;-64
2022/04/15 08:51:55;;;;;;;0.10;0.10;;;;;;;15.44;66.92;101603.91;7346702;19;21534;-66
2022/04/15 08:54:20;;;;;;;0.00;0.00;;;;;;;15.54;67.05;101613.25;7355840;19;20082;-66
2022/04/15 08:56:46;;;;;;;0.03;0.03;;;;;;;15.57;66.61;101610.56;7360016;19;20007;-65
2022/04/15 08:59:11;;;;;;;0.08;0.08;;;;;;;15.60;66.68;101614.84;7348942;19;20691;-66
2022/04/15 09:01:37;;;;;;;0.00;0.00;;;;;;;15.63;66.63;101628.84;7358475;19;20146;-64
2022/04/15 09:04:03;;;;;;;0.00;0.00;;;;;;;15.61;66.66;101622.69;7348336;19;20856;-65
2022/04/15 09:06:31;;;;;;;0.10;0.10;;;;;;;15.72;66.29;101631.22;7358973;19;20002;-66
2022/04/15 09:09:14;;;;;;;0.10;0.10;;;;;;;15.78;65.95;101636.28;7351860;19;20024;-65
2022/04/15 09:11:42;;;;;;;0.10;0.10;;;;;;;15.79;65.84;101634.50;7351494;19;20006;-65
2022/04/15 09:14:13;;;;;;;0.10;0.10;;;;;;;15.80;66.19;101639.72;7340242;19;20022;-66
2022/04/15 09:16:43;;;;;;;0.00;0.00;;;;;;;15.83;65.72;101639.66;7341103;19;20408;-65
2022/04/15 09:19:10;;;;;;;0.10;0.10;;;;;;;15.82;65.61;101648.47;7334848;19;20021;-66
2022/04/15 09:21:36;;;;;;;0.00;0.00;;;;;;;15.80;66.00;101642.34;7338579;19;20049;-65
2022/04/15 09:24:03;;;;;;;0.00;0.00;;;;;;;15.82;65.60;101644.97;7354333;19;20413;-65
2022/04/15 09:26:28;;;;;;;0.10;0.10;;;;;;;15.80;65.80;101649.41;7349319;19;20520;-65
2022/04/15 09:28:54;;;;;;;0.10;0.10;;;;;;;15.80;65.70;101655.53;7354254;19;20006;-64
2022/04/15 09:31:22;;;;;;;0.00;0.00;;;;;;;15.80;65.64;101650.25;7353011;19;20017;-65
2022/04/15 09:33:54;;;;;;;0.00;0.00;;;;;;;15.85;65.41;101652.75;7344885;19;20018;-66
2022/04/15 09:36:25;;;;;;;0.10;0.10;;;;;;;15.86;65.35;101648.34;7351808;19;20011;-66
2022/04/15 09:38:55;;;;;;;0.00;0.00;;;;;;;15.85;65.48;101649.28;7351916;19;20002;-64
2022/04/15 09:41:23;;;;;;;0.10;0.10;;;;;;;15.86;65.69;101658.88;7347162;19;20018;-66
2022/04/15 09:43:52;;;;;;;0.00;0.00;;;;;;;15.82;65.65;101643.19;7350509;19;20158;-64
2022/04/15 09:46:19;;;;;;;0.00;0.00;;;;;;;15.96;65.82;101660.34;7349545;19;20711;-65
2022/04/15 09:49:03;;;;;;;0.10;0.10;;;;;;;16.07;65.44;101659.13;7351552;19;20015;-66
2022/04/15 09:51:31;;;;;;;0.00;0.00;;;;;;;16.11;65.44;101664.28;7349455;19;20023;-65
2022/04/15 09:54:01;;;;;;;0.00;0.00;;;;;;;16.16;65.61;101665.00;7354213;19;20010;-65
2022/04/15 09:56:27;;;;;;;0.10;0.10;;;;;;;16.16;65.19;101657.09;7354227;19;20018;-66
2022/04/15 09:58:56;;;;;;;0.00;0.00;;;;;;;16.26;65.26;101663.81;7347892;19;20052;-64
2022/04/15 10:01:26;;;;;;;0.00;0.00;;;;;;;16.32;65.03;101669.78;7354154;19;20019;-66
2022/04/15 10:03:54;;;;;;;0.10;0.10;;;;;;;16.37;64.95;101677.53;7353673;19;20014;-65
2022/04/15 10:06:20;;;;;;;0.10;0.10;;;;;;;16.38;64.82;101675.78;7354226;19;20572;-65
2022/04/15 10:08:46;;;;;;;0.00;0.00;;;;;;;16.39;64.72;101664.31;7352380;19;20056;-66
2022/04/15 10:11:12;;;;;;;0.00;0.00;;;;;;;16.49;65.09;101676.31;7339273;19;20086;-66
2022/04/15 10:13:39;;;;;;;0.00;0.00;;;;;;;16.54;65.00;101674.38;7354892;19;20014;-65
2022/04/15 10:16:06;;;;;;;0.00;0.00;;;;;;;16.61;64.62;101676.75;7351266;19;20026;-67
2022/04/15 10:18:32;;;;;;;0.00;0.00;;;;;;;16.70;64.66;101675.59;7351583;19;20438;-65
2022/04/15 10:21:01;;;;;;;0.00;0.00;;;;;;;16.79;64.53;101680.63;7351078;19;20023;-65
2022/04/15 10:23:27;;;;;;;0.00;0.00;;;;;;;16.90;64.46;101676.75;7349869;19;21424;-64
2022/04/15 10:25:53;;;;;;;0.10;0.10;;;;;;;16.99;64.03;101671.19;7354197;19;20021;-65
2022/04/15 10:28:20;;;;;;;0.00;0.00;;;;;;;17.05;63.68;101665.69;7353686;19;20025;-65
2022/04/15 10:31:08;;;;;;;0.10;0.10;;;;;;;17.18;64.00;101672.25;7359984;19;20010;-66
2022/04/15 10:33:34;;;;;;;0.00;0.00;;;;;;;17.16;63.10;101676.72;7246624;19;2004498;-65
2022/04/15 10:36:24;;;;;;;0.10;0.10;;;;;;;17.24;63.28;101677.34;7353529;19;20150;-65
2022/04/15 10:39:11;;;;;;;0.00;0.00;;;;;;;17.26;63.21;101675.50;7349652;19;20063;-64
2022/04/15 10:41:42;;;;;;;0.07;0.07;;;;;;;17.28;62.96;101670.16;7359626;19;20034;-66
2022/04/15 10:44:23;;;;;;;0.00;0.00;;;;;;;17.27;63.10;101664.00;7355513;19;20539;-65
2022/04/15 10:46:49;;;;;;;0.00;0.00;;;;;;;17.25;63.03;101668.50;7358018;19;20014;-65
2022/04/15 10:49:27;;;;;;;0.10;0.10;;;;;;;17.30;63.17;101665.69;7358660;19;20031;-67
2022/04/15 10:52:02;;;;;;;;;;;;;;;17.36;63.63;101670.75;7359583;19;20489;-65
2022/04/15 10:54:36;;;;;;;0.00;0.00;;;;;;;17.34;62.77;101662.91;7355564;19;20640;-66
2022/04/15 10:57:10;;;;;;;0.10;0.10;;;;;;;17.34;63.21;101668.19;7352246;19;20043;-67
2022/04/15 11:02:22;;;;;;;0.00;0.00;;;;;;;17.43;62.75;101671.38;7347614;19;20795;-65
2022/04/15 11:04:49;;;;;;;0.10;0.10;;;;;;;17.48;62.67;101672.94;7357414;19;20007;-65
2022/04/15 11:07:48;;;;;;;0.10;0.10;;;;;;;17.63;62.94;101668.88;7353006;19;20038;-66
2022/04/15 11:10:18;;;;;;;0.10;0.10;;;;;;;17.73;61.70;101680.88;7254503;19;2004430;-65
2022/04/15 11:12:44;;;;;;;0.10;0.10;;;;;;;17.76;60.56;101664.91;7348219;19;20006;-65
2022/04/15 11:15:10;;;;;;;0.00;0.00;;;;;;;17.85;60.02;101675.16;7358663;19;20010;-66
2022/04/15 11:17:41;;;;;;;0.00;0.00;;;;;;;17.86;60.94;101671.59;7355636;19;20010;-66
2022/04/15 11:20:08;;;;;;;0.10;0.10;;;;;;;17.93;61.04;101677.50;7354055;19;21051;-66
2022/04/15 11:22:41;;;;;;;0.10;0.10;;;;;;;17.97;60.78;101667.69;7356067;19;20654;-65
2022/04/15 11:25:09;;;;;;;0.08;0.08;;;;;;;17.97;60.86;101683.53;7356704;19;20077;-66